Time;durP1;ratioP1;P1;durP2;ratioP2;P2;SDS_P1;SDS_P2;PMS_P1;PMS_P2;Temp;Humidity;BMP_temperature;BMP_pressure;BME280_temperature;BME280_humidity;BME280_pressure;Samples;Min_cycle;Max_cycle;Signal;HPM_P1;HPM_P2
2021/08/02 00:01:40;;;;;;;;;;;12.60;99.00;;;;;;5072369;28;19969;-64
2021/08/02 00:04:10;;;;;;;;;;;12.70;98.40;;;;;;5072452;28;19935;-65
2021/08/02 00:06:43;;;;;;;;;;;12.70;98.40;;;;;;5072750;28;19908;-66
2021/08/02 00:09:10;;;;;;;;;;;12.70;98.60;;;;;;5072325;28;19952;-66
2021/08/02 00:11:41;;;;;;;;;;;12.80;98.80;;;;;;5072374;28;19916;-66
2021/08/02 00:14:09;;;;;;;;;;;12.80;98.90;;;;;;5072466;28;19909;-66
2021/08/02 00:16:36;;;;;;;;;;;12.90;98.90;;;;;;5072924;28;20290;-63
2021/08/02 00:19:04;;;;;;;;;;;12.90;98.90;;;;;;5072009;28;19908;-65
2021/08/02 00:21:31;;;;;;;;;;;13.00;99.00;;;;;;5072149;28;19908;-65
2021/08/02 00:23:57;;;;;;;;;;;13.10;98.40;;;;;;5072354;28;20499;-64
2021/08/02 00:26:24;;;;;;;;;;;13.20;98.60;;;;;;5072256;28;19912;-64
2021/08/02 00:28:51;;;;;;;;;;;13.30;98.30;;;;;;5072187;28;19909;-64
2021/08/02 00:31:18;;;;;;;;;;;13.40;98.20;;;;;;5072134;28;19920;-64
2021/08/02 00:33:45;;;;;;;;;;;13.40;98.40;;;;;;5071869;28;20313;-65
2021/08/02 00:36:29;;;;;;;;;;;13.40;98.50;;;;;;5072389;28;20320;-65
2021/08/02 00:39:03;;;;;;;;;;;13.50;98.20;;;;;;5072482;28;20363;-65
2021/08/02 00:41:39;;;;;;;;;;;13.60;98.10;;;;;;5072181;28;19908;-64
2021/08/02 00:44:31;;;;;;;;;;;13.60;98.20;;;;;;5072025;28;19929;-66
2021/08/02 00:47:09;;;;;;;;;;;13.60;98.20;;;;;;5071605;28;19917;-67
2021/08/02 00:49:37;;;;;;;;;;;13.80;97.90;;;;;;5071850;28;20267;-65
2021/08/02 00:52:03;;;;;;;;;;;13.80;97.80;;;;;;5072766;28;19909;-67
2021/08/02 00:54:31;;;;;;;;;;;13.80;97.80;;;;;;5075105;28;20011;-67
2021/08/02 00:57:00;;;;;;;;;;;14.00;97.50;;;;;;5075996;28;19908;-67
2021/08/02 00:59:28;;;;;;;;;;;14.10;97.70;;;;;;5075780;28;20381;-66
2021/08/02 01:01:55;;;;;;;;;;;14.10;97.60;;;;;;5074007;28;19908;-67
2021/08/02 01:04:23;;;;;;;;;;;14.10;97.50;;;;;;5108510;28;20007;-66
2021/08/02 01:06:52;;;;;;;;;;;14.20;97.70;;;;;;5075695;28;19963;-65
2021/08/02 01:09:20;;;;;;;;;;;14.40;97.10;;;;;;5076030;28;19953;-66
2021/08/02 01:11:47;;;;;;;;;;;14.60;97.20;;;;;;5075645;28;19912;-66
2021/08/02 01:14:14;;;;;;;;;;;15.10;96.20;;;;;;5075765;28;20299;-66
2021/08/02 01:16:41;;;;;;;;;;;15.80;95.10;;;;;;5075484;28;19970;-66
2021/08/02 01:19:11;;;;;;;;;;;16.30;93.80;;;;;;5075450;28;19908;-66
2021/08/02 01:21:39;;;;;;;;;;;16.70;92.80;;;;;;5075441;28;19909;-66
2021/08/02 01:24:06;;;;;;;;;;;17.30;92.00;;;;;;5075551;28;20420;-66
2021/08/02 01:26:56;;;;;;;;;;;18.20;90.40;;;;;;5075239;28;19915;-65
2021/08/02 01:29:41;;;;;;;;;;;18.20;86.50;;;;;;5065081;28;20282;-65
2021/08/02 01:32:08;;;;;;;;;;;18.20;86.70;;;;;;5075188;28;19915;-66
2021/08/02 01:34:35;;;;;;;;;;;17.80;86.30;;;;;;5075491;28;19955;-66
2021/08/02 01:37:01;;;;;;;;;;;17.50;88.30;;;;;;5075120;28;19909;-65
2021/08/02 01:39:28;;;;;;;;;;;17.30;89.40;;;;;;5075464;28;19969;-65
2021/08/02 01:41:54;;;;;;;;;;;17.20;88.70;;;;;;5075031;28;19962;-67
2021/08/02 01:44:21;;;;;;;;;;;16.90;89.10;;;;;;5073749;28;20012;-65
2021/08/02 01:46:53;;;;;;;;;;;16.80;89.90;;;;;;5074853;28;19924;-66
2021/08/02 01:49:24;;;;;;;;;;;16.80;90.10;;;;;;5074829;28;19912;-67
2021/08/02 01:51:52;;;;;;;;;;;16.80;89.70;;;;;;5074694;28;19916;-65
2021/08/02 01:54:42;;;;;;;;;;;17.00;88.20;;;;;;5074912;28;20381;-65
2021/08/02 01:57:13;;;;;;;;;;;16.90;88.20;;;;;;5074936;28;19909;-66
2021/08/02 01:59:41;;;;;;;;;;;16.70;88.20;;;;;;5074792;28;19970;-65
2021/08/02 02:02:09;;;;;;;;;;;16.70;90.00;;;;;;5074706;28;20309;-65
2021/08/02 02:04:38;;;;;;;;;;;16.90;89.30;;;;;;5074744;28;19912;-65
2021/08/02 02:07:05;;;;;;;;;;;16.90;89.70;;;;;;5074590;28;19917;-66
2021/08/02 02:09:35;;;;;;;;;;;16.70;88.60;;;;;;5074389;28;20402;-65
2021/08/02 02:12:02;;;;;;;;;;;16.60;89.40;;;;;;5074915;28;19908;-65
2021/08/02 02:14:30;;;;;;;;;;;16.50;90.10;;;;;;5074702;28;20326;-64
2021/08/02 02:16:59;;;;;;;;;;;16.60;90.00;;;;;;5074464;28;19908;-65
2021/08/02 02:19:26;;;;;;;;;;;16.50;89.80;;;;;;5074461;28;20394;-65
2021/08/02 02:21:54;;;;;;;;;;;16.50;90.10;;;;;;5074148;28;20264;-64
2021/08/02 02:24:20;;;;;;;;;;;16.60;89.70;;;;;;5074200;28;19908;-65
2021/08/02 02:26:47;;;;;;;;;;;16.60;90.10;;;;;;5074416;28;19916;-66
2021/08/02 02:29:15;;;;;;;;;;;16.60;90.50;;;;;;5074393;28;19931;-66
2021/08/02 02:31:43;;;;;;;;;;;16.70;90.00;;;;;;5073956;28;19913;-68
2021/08/02 02:34:10;;;;;;;;;;;16.70;90.00;;;;;;5074220;28;20313;-68
2021/08/02 02:36:39;;;;;;;;;;;16.80;90.20;;;;;;5074209;28;19908;-68
2021/08/02 02:39:06;;;;;;;;;;;16.70;90.10;;;;;;5074153;28;19909;-65
2021/08/02 02:41:33;;;;;;;;;;;16.70;90.30;;;;;;5073982;28;20290;-66
2021/08/02 02:44:01;;;;;;;;;;;16.80;89.70;;;;;;5073924;28;20260;-66
2021/08/02 02:46:28;;;;;;;;;;;17.00;89.70;;;;;;5073862;28;19912;-65
2021/08/02 02:48:55;;;;;;;;;;;17.00;90.00;;;;;;5073891;28;19988;-64
2021/08/02 02:51:23;;;;;;;;;;;16.90;90.00;;;;;;5074082;28;19908;-67
2021/08/02 02:53:50;;;;;;;;;;;16.90;89.40;;;;;;5073709;28;19912;-67
2021/08/02 02:56:18;;;;;;;;;;;16.80;89.60;;;;;;5073816;28;19909;-66
2021/08/02 02:58:45;;;;;;;;;;;16.80;90.30;;;;;;5073861;28;19952;-65
2021/08/02 03:01:16;;;;;;;;;;;16.80;90.40;;;;;;5073628;28;19915;-66
2021/08/02 03:03:45;;;;;;;;;;;16.80;90.30;;;;;;5073256;28;20271;-67
2021/08/02 03:06:12;;;;;;;;;;;16.70;90.50;;;;;;5073556;28;19909;-65
2021/08/02 03:08:41;;;;;;;;;;;16.70;90.60;;;;;;5073430;28;19916;-66
2021/08/02 03:11:07;;;;;;;;;;;16.70;91.10;;;;;;5073420;28;19912;-66
2021/08/02 03:13:34;;;;;;;;;;;16.80;90.70;;;;;;5073029;28;19912;-68
2021/08/02 03:16:01;;;;;;;;;;;16.70;90.80;;;;;;5071571;28;20370;-66
2021/08/02 03:18:27;;;;;;;;;;;16.80;90.90;;;;;;5073292;28;19915;-64
2021/08/02 03:20:54;;;;;;;;;;;16.70;91.00;;;;;;5073301;28;19915;-66
2021/08/02 03:23:26;;;;;;;;;;;16.70;91.30;;;;;;5073643;28;19925;-66
2021/08/02 03:25:59;;;;;;;;;;;16.70;91.40;;;;;;5073302;28;19948;-65
2021/08/02 03:28:30;;;;;;;;;;;16.60;91.20;;;;;;5073921;28;19916;-67
2021/08/02 03:30:59;;;;;;;;;;;16.60;91.30;;;;;;5073794;28;19917;-65
2021/08/02 03:33:34;;;;;;;;;;;16.70;91.30;;;;;;5073331;28;19931;-66
2021/08/02 03:36:03;;;;;;;;;;;16.80;90.70;;;;;;5073502;28;19913;-65
2021/08/02 03:38:30;;;;;;;;;;;16.90;90.90;;;;;;5073500;28;19908;-64
2021/08/02 03:40:57;;;;;;;;;;;16.80;90.60;;;;;;5072822;28;19972;-65
2021/08/02 03:43:24;;;;;;;;;;;16.70;90.70;;;;;;5072955;28;20344;-66
2021/08/02 03:45:52;;;;;;;;;;;16.80;91.20;;;;;;5072576;28;19912;-66
2021/08/02 03:48:20;;;;;;;;;;;16.80;91.20;;;;;;5072904;28;20291;-65
2021/08/02 03:50:47;;;;;;;;;;;16.70;91.40;;;;;;5073383;28;19968;-66
2021/08/02 03:53:13;;;;;;;;;;;16.60;91.80;;;;;;5073449;28;20382;-65
2021/08/02 03:55:43;;;;;;;;;;;16.70;91.90;;;;;;5072822;28;19966;-65
2021/08/02 03:58:10;;;;;;;;;;;16.60;91.70;;;;;;5072611;28;19948;-64
2021/08/02 04:00:37;;;;;;;;;;;16.60;91.60;;;;;;5072484;28;19919;-66
2021/08/02 04:03:07;;;;;;;;;;;16.60;91.80;;;;;;5072302;28;20346;-66
2021/08/02 04:05:34;;;;;;;;;;;16.80;91.70;;;;;;5072186;28;19909;-65
2021/08/02 04:08:01;;;;;;;;;;;16.90;91.10;;;;;;5072245;28;19985;-67
2021/08/02 04:10:29;;;;;;;;;;;16.90;90.90;;;;;;5072584;28;19909;-67
2021/08/02 04:12:56;;;;;;;;;;;16.90;91.20;;;;;;5072356;28;19919;-66
2021/08/02 04:15:22;;;;;;;;;;;16.80;91.50;;;;;;5072400;28;19909;-66
2021/08/02 04:17:49;;;;;;;;;;;16.70;91.70;;;;;;5072186;28;19954;-65
2021/08/02 04:20:18;;;;;;;;;;;16.60;92.20;;;;;;5072429;28;19913;-65
2021/08/02 04:22:46;;;;;;;;;;;16.60;92.50;;;;;;5072327;28;20012;-65
2021/08/02 04:25:13;;;;;;;;;;;16.60;92.50;;;;;;5072388;28;19916;-66
2021/08/02 04:27:40;;;;;;;;;;;16.50;92.40;;;;;;5071184;28;19916;-66
2021/08/02 04:30:06;;;;;;;;;;;16.60;92.90;;;;;;5072071;28;19912;-67
2021/08/02 04:32:33;;;;;;;;;;;16.50;92.70;;;;;;5071925;28;19915;-67
2021/08/02 04:35:00;;;;;;;;;;;16.50;93.00;;;;;;5072170;28;20331;-65
2021/08/02 04:37:26;;;;;;;;;;;16.60;92.60;;;;;;5072280;28;20385;-65
2021/08/02 04:39:54;;;;;;;;;;;16.60;93.10;;;;;;5071933;28;19909;-65
2021/08/02 04:42:21;;;;;;;;;;;16.60;92.80;;;;;;5071953;28;19908;-64
2021/08/02 04:44:48;;;;;;;;;;;16.50;93.30;;;;;;5071799;28;19962;-65
2021/08/02 04:47:14;;;;;;;;;;;16.50;93.30;;;;;;5071931;28;19916;-65
2021/08/02 04:49:41;;;;;;;;;;;16.50;93.40;;;;;;5071940;28;19999;-65
2021/08/02 04:52:08;;;;;;;;;;;16.50;92.80;;;;;;5072003;28;19920;-65
2021/08/02 04:54:34;;;;;;;;;;;16.50;93.20;;;;;;5070713;28;20307;-67
2021/08/02 04:57:01;;;;;;;;;;;16.50;93.60;;;;;;5071831;28;19908;-66
2021/08/02 04:59:28;;;;;;;;;;;16.50;93.80;;;;;;5104395;28;19915;-66
2021/08/02 05:01:54;;;;;;;;;;;16.60;93.70;;;;;;5071818;28;19956;-66
2021/08/02 05:04:21;;;;;;;;;;;16.60;93.80;;;;;;5071936;28;19939;-66
2021/08/02 05:06:47;;;;;;;;;;;16.70;93.40;;;;;;5071802;28;19909;-66
2021/08/02 05:09:14;;;;;;;;;;;16.60;93.60;;;;;;5071818;28;19913;-65
2021/08/02 05:11:41;;;;;;;;;;;16.50;93.70;;;;;;5071555;28;19909;-68
2021/08/02 05:14:07;;;;;;;;;;;16.30;94.00;;;;;;5071839;28;19913;-66
2021/08/02 05:16:34;;;;;;;;;;;16.30;94.40;;;;;;5071737;28;20012;-66
2021/08/02 05:19:01;;;;;;;;;;;16.40;94.40;;;;;;5072052;28;19916;-64
2021/08/02 05:21:27;;;;;;;;;;;16.30;94.20;;;;;;5071793;28;19909;-67
2021/08/02 05:23:54;;;;;;;;;;;16.30;94.40;;;;;;5071502;28;19916;-64
2021/08/02 05:26:21;;;;;;;;;;;16.20;94.40;;;;;;5071707;28;19916;-65
2021/08/02 05:28:47;;;;;;;;;;;16.20;94.60;;;;;;5071687;28;20015;-64
2021/08/02 05:31:14;;;;;;;;;;;16.20;95.10;;;;;;5071405;28;19908;-66
2021/08/02 05:33:41;;;;;;;;;;;16.30;94.90;;;;;;5071438;28;20011;-64
2021/08/02 05:36:07;;;;;;;;;;;16.30;94.90;;;;;;5071741;28;19915;-64
2021/08/02 05:38:34;;;;;;;;;;;16.30;94.90;;;;;;5072947;28;19919;-65
2021/08/02 05:41:01;;;;;;;;;;;16.20;95.20;;;;;;5074997;28;19908;-64
2021/08/02 05:43:27;;;;;;;;;;;16.20;95.10;;;;;;5074766;28;20259;-64
2021/08/02 05:45:54;;;;;;;;;;;16.20;95.30;;;;;;5074552;28;19998;-64
2021/08/02 05:48:21;;;;;;;;;;;16.30;95.50;;;;;;5074850;28;20379;-64
2021/08/02 05:50:47;;;;;;;;;;;16.20;95.60;;;;;;5074851;28;19962;-64
2021/08/02 05:53:14;;;;;;;;;;;16.20;95.40;;;;;;5074626;28;19909;-64
2021/08/02 05:55:41;;;;;;;;;;;16.20;95.60;;;;;;5074809;28;19909;-64
2021/08/02 05:58:08;;;;;;;;;;;16.20;95.80;;;;;;5074961;28;19916;-65
2021/08/02 06:00:34;;;;;;;;;;;16.20;95.80;;;;;;5074361;28;19915;-64
2021/08/02 06:03:01;;;;;;;;;;;16.30;95.90;;;;;;5074572;28;20341;-65
2021/08/02 06:05:28;;;;;;;;;;;16.20;96.00;;;;;;5074565;28;20006;-65
2021/08/02 06:07:54;;;;;;;;;;;16.20;95.90;;;;;;5074269;28;19960;-64
2021/08/02 06:10:21;;;;;;;;;;;16.30;96.10;;;;;;5073176;28;20275;-64
2021/08/02 06:12:48;;;;;;;;;;;16.40;95.80;;;;;;5074442;28;19908;-64
2021/08/02 06:15:15;;;;;;;;;;;16.40;95.80;;;;;;5074382;28;20346;-64
2021/08/02 06:17:42;;;;;;;;;;;16.50;95.60;;;;;;5074382;28;20352;-65
2021/08/02 06:20:10;;;;;;;;;;;16.50;95.80;;;;;;5074275;28;20359;-64
2021/08/02 06:22:37;;;;;;;;;;;16.40;95.90;;;;;;5074336;28;19915;-64
2021/08/02 06:25:04;;;;;;;;;;;16.40;96.30;;;;;;5074215;28;19913;-64
2021/08/02 06:27:31;;;;;;;;;;;16.40;96.50;;;;;;5073877;28;20007;-63
2021/08/02 06:29:58;;;;;;;;;;;16.30;96.50;;;;;;5074377;28;19915;-64
2021/08/02 06:32:25;;;;;;;;;;;16.30;96.80;;;;;;5073887;28;19908;-64
2021/08/02 06:34:52;;;;;;;;;;;16.20;96.90;;;;;;5073955;28;20310;-64
2021/08/02 06:37:19;;;;;;;;;;;16.20;97.20;;;;;;5074192;28;19915;-64
2021/08/02 06:39:45;;;;;;;;;;;16.20;97.20;;;;;;5073882;28;19947;-65
2021/08/02 06:42:13;;;;;;;;;;;16.20;97.40;;;;;;5073910;28;19960;-65
2021/08/02 06:44:41;;;;;;;;;;;16.20;97.40;;;;;;5073689;28;20386;-64
2021/08/02 06:47:08;;;;;;;;;;;16.20;97.50;;;;;;5073705;28;19917;-64
2021/08/02 06:49:35;;;;;;;;;;;16.20;97.60;;;;;;5072716;28;19915;-65
2021/08/02 06:52:02;;;;;;;;;;;16.10;97.40;;;;;;5071438;28;19915;-65
2021/08/02 06:54:28;;;;;;;;;;;16.20;96.90;;;;;;5104195;28;19947;-65
2021/08/02 06:56:55;;;;;;;;;;;16.20;96.60;;;;;;5071635;28;19912;-66
2021/08/02 06:59:22;;;;;;;;;;;16.20;96.10;;;;;;5071617;28;19908;-64
2021/08/02 07:01:48;;;;;;;;;;;16.20;95.90;;;;;;5071256;28;19939;-65
2021/08/02 07:04:15;;;;;;;;;;;16.20;95.70;;;;;;5071137;28;19919;-65
2021/08/02 07:06:44;;;;;;;;;;;16.20;95.60;;;;;;5071439;28;19923;-64
2021/08/02 07:09:11;;;;;;;;;;;16.10;95.70;;;;;;5071220;28;20252;-66
2021/08/02 07:11:37;;;;;;;;;;;16.10;95.60;;;;;;5071098;28;19908;-64
2021/08/02 07:14:04;;;;;;;;;;;16.00;95.60;;;;;;5071171;28;20007;-64
2021/08/02 07:16:31;;;;;;;;;;;16.00;95.50;;;;;;5070937;28;20437;-64
2021/08/02 07:18:57;;;;;;;;;;;15.90;95.50;;;;;;5070747;28;20597;-65
2021/08/02 07:21:25;;;;;;;;;;;15.90;95.70;;;;;;5071376;28;20385;-64
2021/08/02 07:23:52;;;;;;;;;;;15.90;95.70;;;;;;5070889;28;19913;-65
2021/08/02 07:26:18;;;;;;;;;;;15.90;95.60;;;;;;5070965;28;19913;-64
2021/08/02 07:28:45;;;;;;;;;;;15.80;95.70;;;;;;5070968;28;19917;-64
2021/08/02 07:31:12;;;;;;;;;;;15.90;95.60;;;;;;5070439;28;19953;-65
2021/08/02 07:33:39;;;;;;;;;;;15.80;95.40;;;;;;5070617;28;19915;-64
2021/08/02 07:36:07;;;;;;;;;;;15.80;95.50;;;;;;5070845;28;20460;-64
2021/08/02 07:38:37;;;;;;;;;;;15.80;95.60;;;;;;5070710;28;19920;-64
2021/08/02 07:41:03;;;;;;;;;;;15.70;95.70;;;;;;5070725;28;19919;-65
2021/08/02 07:43:32;;;;;;;;;;;15.70;95.50;;;;;;5070079;28;20649;-65
2021/08/02 07:45:58;;;;;;;;;;;15.70;95.60;;;;;;5070682;28;19913;-64
2021/08/02 07:48:25;;;;;;;;;;;15.80;95.20;;;;;;5070530;28;20522;-66
2021/08/02 07:50:52;;;;;;;;;;;15.70;95.20;;;;;;5070604;28;20241;-66
2021/08/02 07:53:22;;;;;;;;;;;15.70;95.80;;;;;;5069960;28;20630;-66
2021/08/02 07:55:49;;;;;;;;;;;15.70;95.50;;;;;;5070645;28;20012;-66
2021/08/02 07:58:15;;;;;;;;;;;15.60;95.60;;;;;;5070195;28;19909;-65
2021/08/02 08:00:42;;;;;;;;;;;15.60;95.70;;;;;;5070130;28;19912;-67
2021/08/02 08:03:09;;;;;;;;;;;15.60;95.80;;;;;;5070489;28;19994;-66
2021/08/02 08:05:36;;;;;;;;;;;15.60;95.80;;;;;;5070296;28;19971;-64
2021/08/02 08:08:02;;;;;;;;;;;15.60;96.10;;;;;;5070417;28;19966;-64
2021/08/02 08:10:29;;;;;;;;;;;15.50;96.20;;;;;;5070233;28;19908;-67
2021/08/02 08:12:56;;;;;;;;;;;15.60;96.30;;;;;;5070273;28;19912;-65
2021/08/02 08:15:24;;;;;;;;;;;15.60;96.20;;;;;;5070006;28;19912;-65
2021/08/02 08:17:51;;;;;;;;;;;15.60;96.30;;;;;;5070167;28;19908;-65
2021/08/02 08:20:19;;;;;;;;;;;15.60;96.30;;;;;;5070412;28;19909;-66
2021/08/02 08:22:46;;;;;;;;;;;15.60;96.50;;;;;;5069979;28;19908;-65
2021/08/02 08:25:13;;;;;;;;;;;15.60;96.60;;;;;;5070194;28;19909;-66
2021/08/02 08:27:39;;;;;;;;;;;15.60;96.80;;;;;;5070021;28;19919;-66
2021/08/02 08:30:07;;;;;;;;;;;15.60;96.90;;;;;;5070249;28;20407;-65
2021/08/02 08:32:37;;;;;;;;;;;15.50;97.20;;;;;;5070243;28;19965;-65
2021/08/02 08:35:04;;;;;;;;;;;15.50;97.30;;;;;;5070379;28;19912;-65
2021/08/02 08:37:31;;;;;;;;;;;15.60;97.60;;;;;;5069597;28;19909;-68
2021/08/02 08:39:58;;;;;;;;;;;15.60;97.80;;;;;;5070029;28;19908;-65
2021/08/02 08:42:24;;;;;;;;;;;15.50;97.90;;;;;;5070132;28;19916;-64
2021/08/02 08:44:51;;;;;;;;;;;15.50;98.10;;;;;;5069802;28;19925;-65
2021/08/02 08:47:17;;;;;;;;;;;15.50;98.30;;;;;;5070054;28;19928;-68
2021/08/02 08:49:46;;;;;;;;;;;15.50;98.30;;;;;;5069563;28;19908;-68
2021/08/02 08:52:14;;;;;;;;;;;15.60;98.50;;;;;;5069998;28;19917;-67
2021/08/02 08:54:42;;;;;;;;;;;15.60;98.70;;;;;;5070316;28;20640;-65
2021/08/02 08:57:09;;;;;;;;;;;15.60;98.90;;;;;;5070201;28;20362;-66
2021/08/02 08:59:49;;;;;;;;;;;15.60;98.90;;;;;;5069577;28;20006;-65
2021/08/02 09:02:22;;;;;;;;;;;15.60;99.20;;;;;;5069538;28;20363;-65
2021/08/02 09:04:59;;;;;;;;;;;15.60;99.40;;;;;;5070062;28;19930;-65
2021/08/02 09:07:39;;;;;;;;;;;15.60;99.50;;;;;;5071876;28;19919;-65
2021/08/02 09:10:08;;;;;;;;;;;15.60;99.60;;;;;;5071963;28;19908;-64
2021/08/02 09:12:34;;;;;;;;;;;15.60;99.90;;;;;;5071928;28;19952;-65
2021/08/02 09:15:06;;;;;;;;;;;15.60;99.90;;;;;;5075302;28;20377;-65
2021/08/02 09:17:37;;;;;;;;;;;15.60;99.90;;;;;;5075430;28;19912;-65
2021/08/02 09:20:17;;;;;;;;;;;15.60;99.90;;;;;;5075703;28;19908;-65
2021/08/02 09:22:43;;;;;;;;;;;15.60;99.90;;;;;;5075644;28;19909;-65
2021/08/02 09:25:11;;;;;;;;;;;15.60;99.90;;;;;;5075543;28;19961;-66
2021/08/02 09:27:39;;;;;;;;;;;15.60;99.90;;;;;;5075089;28;20241;-65
2021/08/02 09:30:17;;;;;;;;;;;15.60;99.90;;;;;;5075199;28;19908;-66
2021/08/02 09:32:44;;;;;;;;;;;15.60;99.90;;;;;;5075446;28;19936;-66
2021/08/02 09:35:11;;;;;;;;;;;15.60;99.90;;;;;;5075391;28;19912;-65
2021/08/02 09:37:38;;;;;;;;;;;15.60;99.90;;;;;;5075071;28;20386;-65
2021/08/02 09:40:05;;;;;;;;;;;15.60;99.90;;;;;;5075247;28;19909;-66
2021/08/02 09:42:32;;;;;;;;;;;15.60;99.90;;;;;;5075153;28;19920;-66
2021/08/02 09:45:02;;;;;;;;;;;15.60;99.90;;;;;;5074714;28;19920;-66
2021/08/02 09:47:29;;;;;;;;;;;15.50;99.90;;;;;;5074948;28;20038;-65
2021/08/02 09:49:56;;;;;;;;;;;15.60;99.90;;;;;;5074605;28;20279;-66
2021/08/02 09:52:23;;;;;;;;;;;15.60;99.90;;;;;;5075028;28;20359;-66
2021/08/02 09:54:59;;;;;;;;;;;15.60;99.90;;;;;;5075133;28;19916;-66
2021/08/02 09:57:26;;;;;;;;;;;15.70;99.90;;;;;;5074968;28;20378;-65
2021/08/02 09:59:53;;;;;;;;;;;15.60;99.90;;;;;;5074917;28;19912;-65
2021/08/02 10:02:20;;;;;;;;;;;15.70;99.90;;;;;;5075103;28;20006;-67
2021/08/02 10:04:46;;;;;;;;;;;15.70;99.90;;;;;;5075050;28;19966;-64
2021/08/02 10:07:13;;;;;;;;;;;15.70;99.90;;;;;;5074605;28;19919;-67
2021/08/02 10:09:40;;;;;;;;;;;15.70;99.90;;;;;;5073042;28;19920;-65
2021/08/02 10:12:07;;;;;;;;;;;15.70;99.90;;;;;;5074526;28;19948;-64
2021/08/02 10:14:33;;;;;;;;;;;15.70;99.90;;;;;;5074629;28;19935;-65
2021/08/02 10:17:03;;;;;;;;;;;15.70;99.90;;;;;;5074554;28;19915;-65
2021/08/02 10:19:37;;;;;;;;;;;15.70;99.90;;;;;;5074299;28;19955;-65
2021/08/02 10:22:04;;;;;;;;;;;15.80;99.90;;;;;;5074380;28;20373;-65
2021/08/02 10:24:31;;;;;;;;;;;15.80;99.90;;;;;;5073476;28;19909;-65
2021/08/02 10:26:59;;;;;;;;;;;15.80;99.90;;;;;;5074174;28;19908;-64
2021/08/02 10:29:42;;;;;;;;;;;15.90;99.90;;;;;;5074413;28;19955;-64
2021/08/02 10:32:24;;;;;;;;;;;15.90;99.90;;;;;;5074340;28;19908;-64
2021/08/02 10:34:54;;;;;;;;;;;16.00;99.90;;;;;;5074445;28;19966;-65
2021/08/02 10:37:36;;;;;;;;;;;16.00;99.90;;;;;;5074365;28;19909;-65
2021/08/02 10:40:07;;;;;;;;;;;16.00;99.90;;;;;;5074043;28;19912;-65
2021/08/02 10:42:51;;;;;;;;;;;16.00;99.90;;;;;;5073633;28;20358;-65
2021/08/02 10:45:31;;;;;;;;;;;16.00;99.90;;;;;;5073705;28;20405;-65
2021/08/02 10:47:58;;;;;;;;;;;16.00;99.90;;;;;;5074061;28;20007;-65
2021/08/02 10:50:26;;;;;;;;;;;15.90;99.90;;;;;;5073688;28;19908;-66
2021/08/02 10:52:53;;;;;;;;;;;15.90;99.90;;;;;;5073156;28;19976;-65
2021/08/02 10:55:20;;;;;;;;;;;16.00;99.90;;;;;;5073571;28;19908;-65
2021/08/02 10:57:57;;;;;;;;;;;15.90;99.90;;;;;;5073957;28;19958;-66
2021/08/02 11:00:23;;;;;;;;;;;15.90;99.90;;;;;;5074345;28;19977;-66
2021/08/02 11:02:51;;;;;;;;;;;15.80;99.90;;;;;;5074123;28;19908;-65
2021/08/02 11:05:18;;;;;;;;;;;15.90;99.90;;;;;;5073649;28;19940;-67
2021/08/02 11:07:45;;;;;;;;;;;15.90;99.90;;;;;;5073498;28;20331;-66
2021/08/02 11:10:14;;;;;;;;;;;15.90;99.90;;;;;;5073850;28;19948;-65
2021/08/02 11:12:44;;;;;;;;;;;15.90;99.90;;;;;;5074012;28;20317;-66
2021/08/02 11:15:11;;;;;;;;;;;15.80;99.90;;;;;;5073897;28;19951;-65
2021/08/02 11:17:40;;;;;;;;;;;15.80;99.90;;;;;;5073753;28;19908;-66
2021/08/02 11:20:08;;;;;;;;;;;15.70;99.90;;;;;;5074219;28;19909;-66
2021/08/02 11:22:48;;;;;;;;;;;15.70;99.90;;;;;;5073665;28;19908;-65
2021/08/02 11:25:20;;;;;;;;;;;15.70;99.90;;;;;;5073732;28;19954;-65
2021/08/02 11:27:51;;;;;;;;;;;15.60;99.90;;;;;;5072158;28;19923;-66
2021/08/02 11:30:17;;;;;;;;;;;15.60;99.90;;;;;;5072984;28;19908;-64
2021/08/02 11:32:45;;;;;;;;;;;15.60;99.90;;;;;;5072928;28;19915;-65
2021/08/02 11:35:11;;;;;;;;;;;15.60;99.90;;;;;;5072755;28;19995;-65
2021/08/02 11:37:38;;;;;;;;;;;15.60;99.90;;;;;;5072017;28;19916;-68
2021/08/02 11:40:06;;;;;;;;;;;15.60;99.90;;;;;;5072806;28;19916;-67
2021/08/02 11:42:33;;;;;;;;;;;15.60;99.90;;;;;;5072824;28;19915;-66
2021/08/02 11:45:02;;;;;;;;;;;15.60;99.90;;;;;;5072372;28;19927;-67
2021/08/02 11:47:35;;;;;;;;;;;15.60;99.90;;;;;;5072393;28;19957;-67
2021/08/02 11:50:03;;;;;;;;;;;15.50;99.90;;;;;;5072509;28;19916;-66
2021/08/02 11:52:29;;;;;;;;;;;15.50;99.90;;;;;;5072306;28;20434;-66
2021/08/02 11:55:02;;;;;;;;;;;15.60;99.90;;;;;;5072643;28;19951;-65
2021/08/02 11:57:29;;;;;;;;;;;15.50;99.90;;;;;;5072632;28;19916;-67
2021/08/02 11:59:56;;;;;;;;;;;15.50;99.90;;;;;;5072377;28;20375;-68
2021/08/02 12:02:48;;;;;;;;;;;15.50;99.90;;;;;;5072505;28;19913;-65
2021/08/02 12:05:21;;;;;;;;;;;15.50;99.90;;;;;;5071408;28;19908;-67
2021/08/02 12:07:48;;;;;;;;;;;15.50;99.90;;;;;;5071301;28;19917;-67
2021/08/02 12:10:17;;;;;;;;;;;15.50;99.90;;;;;;5072072;28;19957;-66
2021/08/02 12:12:55;;;;;;;;;;;15.50;99.90;;;;;;5072677;28;20331;-68
2021/08/02 12:15:22;;;;;;;;;;;15.40;99.90;;;;;;5104789;28;19915;-65
2021/08/02 12:17:50;;;;;;;;;;;15.50;99.90;;;;;;5072155;28;20031;-66
2021/08/02 12:20:27;;;;;;;;;;;15.50;99.90;;;;;;5072474;28;19913;-65
2021/08/02 12:22:54;;;;;;;;;;;15.50;99.90;;;;;;5072252;28;20053;-65
2021/08/02 12:25:22;;;;;;;;;;;15.40;99.90;;;;;;5072333;28;20383;-65
2021/08/02 12:27:58;;;;;;;;;;;15.50;99.90;;;;;;5070792;28;19942;-66
2021/08/02 12:30:24;;;;;;;;;;;15.50;99.90;;;;;;5072152;28;19967;-66
2021/08/02 12:32:51;;;;;;;;;;;15.50;99.90;;;;;;5072265;28;19908;-64
2021/08/02 12:35:18;;;;;;;;;;;15.50;99.90;;;;;;5071871;28;20023;-64
2021/08/02 12:37:45;;;;;;;;;;;15.50;99.90;;;;;;5071939;28;19943;-65
2021/08/02 12:40:16;;;;;;;;;;;15.50;99.90;;;;;;5072215;28;20138;-66
2021/08/02 12:42:47;;;;;;;;;;;15.50;99.90;;;;;;5071996;28;20349;-66
2021/08/02 12:45:14;;;;;;;;;;;15.60;99.90;;;;;;5071786;28;20007;-66
2021/08/02 12:47:41;;;;;;;;;;;15.60;99.90;;;;;;5071633;28;20397;-67
2021/08/02 12:50:08;;;;;;;;;;;15.60;99.90;;;;;;5075448;28;19931;-66
2021/08/02 12:52:35;;;;;;;;;;;15.60;99.90;;;;;;5076249;28;19915;-66
2021/08/02 12:55:03;;;;;;;;;;;15.60;99.90;;;;;;5076154;28;19939;-67
2021/08/02 12:57:31;;;;;;;;;;;15.60;99.90;;;;;;5075823;28;19908;-66
2021/08/02 12:59:58;;;;;;;;;;;15.60;99.90;;;;;;5075808;28;19915;-69
2021/08/02 13:02:28;;;;;;;;;;;15.50;99.90;;;;;;5075822;28;19967;-67
2021/08/02 13:04:56;;;;;;;;;;;15.60;99.90;;;;;;5075726;28;20267;-66
2021/08/02 13:07:23;;;;;;;;;;;15.70;99.90;;;;;;5075901;28;20061;-67
2021/08/02 13:09:50;;;;;;;;;;;15.80;99.90;;;;;;5075642;28;19957;-67
2021/08/02 13:12:17;;;;;;;;;;;15.70;99.90;;;;;;5075593;28;19939;-66
2021/08/02 13:14:44;;;;;;;;;;;15.80;99.90;;;;;;5075295;28;19909;-65
2021/08/02 13:17:11;;;;;;;;;;;15.80;99.90;;;;;;5075557;28;19909;-68
2021/08/02 13:19:42;;;;;;;;;;;15.80;99.90;;;;;;5075237;28;19908;-66
2021/08/02 13:22:11;;;;;;;;;;;15.80;99.90;;;;;;5075583;28;19931;-68
2021/08/02 13:27:22;;;;;;;;;;;15.90;99.90;;;;;;5075580;28;19920;-67
2021/08/02 13:29:49;;;;;;;;;;;15.90;99.90;;;;;;5074925;28;19913;-68
2021/08/02 13:32:16;;;;;;;;;;;15.90;99.90;;;;;;5101308;28;20452;-67
2021/08/02 13:34:45;;;;;;;;;;;15.90;99.90;;;;;;5115734;28;19907;-68
2021/08/02 13:37:12;;;;;;;;;;;15.90;99.90;;;;;;5115865;28;19908;-68
2021/08/02 13:39:39;;;;;;;;;;;15.90;99.90;;;;;;5115234;28;19960;-67
2021/08/02 13:42:06;;;;;;;;;;;16.00;99.90;;;;;;5115817;28;19914;-66
2021/08/02 13:44:33;;;;;;;;;;;16.00;99.90;;;;;;5115475;28;20325;-66
2021/08/02 13:47:01;;;;;;;;;;;16.00;99.90;;;;;;5115777;28;19930;-66
2021/08/02 13:49:28;;;;;;;;;;;16.00;99.90;;;;;;5115771;28;19907;-66
2021/08/02 13:51:55;;;;;;;;;;;16.10;99.90;;;;;;5115492;28;19912;-67
2021/08/02 13:54:22;;;;;;;;;;;16.10;99.90;;;;;;5115507;27;19908;-67
2021/08/02 13:56:48;;;;;;;;;;;16.10;99.90;;;;;;5115523;28;20025;-67
2021/08/02 13:59:15;;;;;;;;;;;16.10;99.90;;;;;;5115080;28;19991;-67
2021/08/02 14:01:42;;;;;;;;;;;16.10;99.90;;;;;;5115237;28;19947;-67
2021/08/02 14:04:09;;;;;;;;;;;16.10;99.90;;;;;;5115466;28;19915;-68
2021/08/02 14:06:37;;;;;;;;;;;16.10;99.90;;;;;;5115265;28;20154;-68
2021/08/02 14:09:04;;;;;;;;;;;16.00;99.90;;;;;;5114943;28;19915;-66
2021/08/02 14:11:31;;;;;;;;;;;16.10;99.90;;;;;;5115053;27;19907;-68
2021/08/02 14:14:00;;;;;;;;;;;16.00;99.90;;;;;;5115111;28;20433;-68
2021/08/02 14:16:30;;;;;;;;;;;16.00;99.90;;;;;;5115059;28;20344;-66
2021/08/02 14:19:02;;;;;;;;;;;16.00;99.90;;;;;;5115004;28;19912;-67
2021/08/02 14:21:30;;;;;;;;;;;16.00;99.90;;;;;;5115008;27;19915;-67
2021/08/02 14:23:57;;;;;;;;;;;16.00;99.90;;;;;;5114969;28;19919;-68
2021/08/02 14:26:23;;;;;;;;;;;15.90;99.90;;;;;;5114947;28;20366;-67